Latest Weather Observations for PORTABLE QFRB

IDQ60801

Issued at 12:32 pm EST Friday 1 July 2016 (issued every 30 minutes, with the page automatically refreshed every 10 minutes)

About weather observations | Map of weather stations | Latest weather observations for QLD | Other Formats
Station Details ID: 250048 Name: PORTABLE QFRB Lat: -23.16 Lon: 150.68 Height: 94.0 m
Data from the previous 72 hours. | See also: Recent months for locations in Queensland
Date/Time
EST
Temp
°C
App
Temp
°C
Dew
Point
°C
Rel
Hum
%
Delta-T
°C
Wind Press
QNH
hPa
Press
MSL
hPa
Rain since
9am
mm
Dir  Spd
km/h
Gust
km/h
Spd
kts
Gust
kts
01/12:30pm 23.6 22.7 13.8 54 5.7 SSW 11 17 6 9 - - 0.0
01/12:20pm 23.1 23.3 14.6 58 5.0 SSW 7 9 4 5 - - 0.0
01/12:10pm 21.8 21.2 14.7 64 4.2 SW 11 15 6 8 - - 0.0
01/12:00pm 22.5 21.8 14.4 60 4.8 WSW 11 19 6 10 - - 0.0
01/11:50am 22.7 22.6 14.0 58 5.1 SW 7 13 4 7 - - 0.0
01/11:40am 22.5 22.4 15.0 62 4.5 WSW 9 15 5 8 - - 0.0
01/11:30am 23.1 22.5 14.7 59 5.0 WSW 11 15 6 8 - - 0.0
01/11:20am 23.1 22.2 14.8 59 4.9 W 13 15 7 8 - - 0.0
01/11:10am 22.8 23.0 15.8 64 4.2 W 9 15 5 8 - - 0.0
01/11:00am 22.8 23.2 16.4 67 3.9 SW 9 15 5 8 - - 0.0
01/10:50am 22.5 23.1 16.9 70 3.4 W 9 11 5 6 - - 0.0
01/10:40am 22.4 23.4 16.9 71 3.4 SSW 7 9 4 5 - - 0.0
01/10:30am 22.1 23.5 17.3 74 3.0 WSW 6 9 3 5 - - 0.0
01/10:20am 21.2 22.4 17.4 79 2.3 SSW 7 11 4 6 - - 0.0
01/10:10am 20.5 21.8 17.6 83 1.8 SW 7 9 4 5 - - 0.0
01/10:00am 19.8 20.7 17.5 86 1.4 WSW 9 11 5 6 - - 0.0
01/09:50am 19.3 20.6 17.5 89 1.1 SSW 7 11 4 6 - - 0.0
01/09:40am 18.9 20.2 17.5 92 0.9 SSW 7 9 4 5 - - 0.0
01/09:30am 18.3 19.0 17.0 92 0.8 SW 9 11 5 6 - - 0.0
01/09:20am 17.9 18.8 16.7 93 0.7 SSW 7 9 4 5 - - 0.0
01/09:10am 17.5 18.0 16.5 94 0.6 SSW 9 11 5 6 - - 0.0
01/09:00am 17.1 17.9 16.3 95 0.5 SSW 7 7 4 4 - - 0.0
01/08:50am 16.6 17.2 15.8 95 0.5 SSW 7 7 4 4 - - 0.0
01/08:40am 16.0 16.6 15.4 96 0.3 SSW 6 7 3 4 - - 0.0
01/08:30am 15.4 15.6 14.8 96 0.3 SW 7 9 4 5 - - 0.0
01/08:20am 15.6 16.4 14.9 96 0.4 S 4 9 2 5 - - 0.0
01/08:10am 15.7 17.4 15.2 97 0.3 CALM 0 0 0 0 - - 0.0
01/08:00am 15.3 16.9 14.9 97 0.2 CALM 0 0 0 0 - - 0.0
01/07:50am 14.4 15.7 14.2 99 0.1 CALM 0 0 0 0 - - 0.0
01/07:40am 13.8 14.5 13.5 98 0.2 SW 2 6 1 3 - - 0.0
01/07:30am 13.7 14.0 13.5 99 0.1 SW 4 6 2 3 - - 0.0
01/07:20am 13.5 14.5 13.3 99 0.1 CALM 0 0 0 0 - - 0.0
01/07:10am 13.1 14.0 12.9 99 0.1 CALM 0 4 0 2 - - 0.0
01/07:00am 13.6 13.9 13.4 99 0.1 SW 4 7 2 4 - - 0.0
01/06:50am 13.2 13.0 13.0 99 0.1 SW 6 7 3 4 - - 0.0
01/06:40am 13.4 13.3 13.2 99 0.1 SW 6 9 3 5 - - 0.0
01/06:30am 14.1 15.0 13.9 99 0.1 SW 2 6 1 3 - - 0.0
01/06:20am 13.9 14.3 13.7 99 0.1 SW 4 6 2 3 - - 0.0
01/06:10am 13.4 13.3 13.2 99 0.1 SSW 6 9 3 5 - - 0.0
01/06:00am 13.2 13.0 13.0 99 0.1 SSW 6 9 3 5 - - 0.0
01/05:50am 13.2 13.4 12.9 98 0.2 S 4 7 2 4 - - 0.0
01/05:40am 13.6 14.7 13.4 99 0.1 CALM 0 0 0 0 - - 0.0
01/05:30am 13.6 14.3 13.3 98 0.2 ENE 2 4 1 2 - - 0.0
01/05:20am 13.5 14.5 13.2 98 0.2 CALM 0 4 0 2 - - 0.0
01/05:10am 13.4 14.4 13.1 98 0.2 CALM 0 6 0 3 - - 0.0
01/05:00am 13.8 14.9 13.5 98 0.2 CALM 0 6 0 3 - - 0.0
01/04:50am 14.5 15.9 14.3 99 0.1 CALM 0 0 0 0 - - 0.0
01/04:40am 14.7 16.1 14.5 99 0.1 CALM 0 0 0 0 - - 0.0
01/04:30am 14.7 16.1 14.4 98 0.2 CALM 0 0 0 0 - - 0.0
01/04:20am 14.4 15.7 14.1 98 0.2 CALM 0 0 0 0 - - 0.0
01/04:10am 14.8 16.2 14.4 97 0.2 CALM 0 0 0 0 - - 0.0
01/04:00am 15.2 16.4 14.9 98 0.2 SSW 2 6 1 3 - - 0.0
01/03:50am 15.8 16.9 15.5 98 0.2 SW 4 7 2 4 - - 0.0
01/03:40am 15.8 17.6 15.5 98 0.2 CALM 0 0 0 0 - - 0.0
01/03:30am 15.9 17.0 15.6 98 0.2 SSW 4 6 2 3 - - 0.0
01/03:20am 16.1 16.9 15.8 98 0.2 WSW 6 7 3 4 - - 0.0
01/03:10am 16.1 17.6 15.8 98 0.2 SW 2 6 1 3 - - 0.0
01/03:00am 16.1 17.7 15.9 99 0.1 W 2 6 1 3 - - 0.0
01/02:50am 16.2 18.2 15.9 98 0.2 CALM 0 0 0 0 - - 0.0
01/02:40am 16.2 18.2 15.9 98 0.2 CALM 0 4 0 2 - - 0.0
01/02:30am 16.1 18.0 15.8 98 0.2 CALM 0 0 0 0 - - 0.0
01/02:20am 16.0 17.9 15.8 99 0.1 CALM 0 2 0 1 - - 0.0
01/02:10am 16.1 18.0 15.8 98 0.2 CALM 0 0 0 0 - - 0.0
01/02:00am 15.6 17.3 15.3 98 0.2 CALM 0 0 0 0 - - 0.0
01/01:50am 15.4 17.0 15.0 97 0.2 CALM 0 0 0 0 - - 0.0
01/01:40am 15.5 17.2 15.2 98 0.2 CALM 0 0 0 0 - - 0.0
01/01:30am 15.9 17.7 15.6 98 0.2 CALM 0 0 0 0 - - 0.0
01/01:20am 15.9 17.7 15.6 98 0.2 CALM 0 0 0 0 - - 0.0
01/01:10am 15.8 17.6 15.5 98 0.2 CALM 0 0 0 0 - - 0.0
01/01:00am 15.8 17.6 15.5 98 0.2 CALM 0 0 0 0 - - 0.0
01/12:50am 15.6 17.3 15.3 98 0.2 CALM 0 0 0 0 - - 0.0
01/12:40am 15.6 17.3 15.2 97 0.2 CALM 0 0 0 0 - - 0.0
01/12:30am 15.5 17.1 15.0 97 0.3 CALM 0 0 0 0 - - 0.0
01/12:20am 15.6 17.3 15.1 97 0.3 CALM 0 0 0 0 - - 0.0
01/12:10am 15.6 17.3 15.1 97 0.3 CALM 0 0 0 0 - - 0.0
01/12:00am 15.7 17.4 15.2 97 0.3 CALM 0 0 0 0 - - 0.0
 
Date/Time
EST
Temp
°C
App
Temp
°C
Dew
Point
°C
Rel
Hum
%
Delta-T
°C
Wind Press
QNH
hPa
Press
MSL
hPa
Rain since
9am
mm
Dir  Spd
km/h
Gust
km/h
Spd
kts
Gust
kts
30/11:50pm 16.0 17.8 15.4 96 0.3 CALM 0 0 0 0 - - 0.0
30/11:40pm 16.4 18.0 15.9 97 0.3 SW 2 6 1 3 - - 0.0
30/11:30pm 16.5 18.5 16.0 97 0.3 CALM 0 4 0 2 - - 0.0
30/11:20pm 16.3 18.2 15.8 97 0.3 CALM 0 0 0 0 - - 0.0
30/11:10pm 16.0 17.8 15.6 97 0.2 CALM 0 0 0 0 - - 0.0
30/11:00pm 15.8 16.8 15.3 97 0.3 SW 4 4 2 2 - - 0.0
30/10:50pm 15.5 15.8 15.0 97 0.3 SW 7 11 4 6 - - 0.0
30/10:40pm 15.8 16.1 15.1 96 0.4 SW 7 11 4 6 - - 0.0
30/10:30pm 16.1 17.6 15.6 97 0.3 WNW 2 6 1 3 - - 0.0
30/10:20pm 15.9 17.6 15.2 96 0.4 CALM 0 0 0 0 - - 0.0
30/10:10pm 16.3 17.7 15.5 95 0.5 SSE 2 4 1 2 - - 0.0
30/10:00pm 16.5 17.7 15.9 96 0.4 NW 4 6 2 3 - - 0.0
30/09:50pm 16.1 17.8 15.3 95 0.5 CALM 0 0 0 0 - - 0.0
30/09:40pm 16.4 17.9 15.7 96 0.4 W 2 4 1 2 - - 0.0
30/09:30pm 16.3 18.1 15.6 96 0.4 CALM 0 0 0 0 - - 0.0
30/09:20pm 16.2 17.6 15.4 95 0.5 WSW 2 4 1 2 - - 0.0
30/09:10pm 16.1 17.5 15.3 95 0.5 SSW 2 6 1 3 - - 0.0
30/09:00pm 16.1 16.7 15.2 94 0.5 SSW 6 7 3 4 - - 0.0
30/08:50pm 16.2 17.6 15.3 94 0.5 SW 2 6 1 3 - - 0.0
30/08:40pm 16.7 18.5 15.4 92 0.8 CALM 0 0 0 0 - - 0.0
30/08:30pm 17.2 18.7 15.7 91 0.9 NNE 2 7 1 4 - - 0.0
30/08:20pm 17.5 18.2 16.0 91 0.9 N 7 7 4 4 - - 0.0
30/08:10pm 17.4 18.0 15.9 91 0.9 NNE 7 9 4 5 - - 0.0
30/08:00pm 17.0 17.2 15.8 93 0.7 NNE 9 9 5 5 - - 0.0
30/07:50pm 16.5 17.6 15.6 94 0.5 N 4 6 2 3 - - 0.0
30/07:40pm 16.9 18.6 15.1 89 1.0 CALM 0 4 0 2 - - 0.0
30/07:30pm 17.5 18.7 15.8 90 1.0 NNW 4 6 2 3 - - 0.0
30/07:20pm 17.4 18.1 15.7 90 1.0 N 6 7 3 4 - - 0.0
30/07:10pm 17.4 18.1 15.6 89 1.1 NNE 6 9 3 5 - - 0.0
30/07:00pm 17.4 18.5 15.6 89 1.1 NNE 4 6 2 3 - - 0.0
30/06:50pm 17.7 18.8 15.5 87 1.3 NE 4 6 2 3 - - 0.0
30/06:40pm 17.8 18.3 15.5 86 1.4 NNE 7 7 4 4 - - 0.0
30/06:30pm 17.8 18.3 15.5 86 1.4 NE 7 9 4 5 - - 0.0
30/06:20pm 17.8 17.9 15.4 86 1.4 NE 9 11 5 6 - - 0.0
30/06:10pm 17.9 17.9 15.3 85 1.5 NE 9 11 5 6 - - 0.0
30/06:00pm 18.0 18.4 15.4 85 1.5 NE 7 7 4 4 - - 0.0
30/05:50pm 18.2 18.6 15.4 84 1.6 NE 7 7 4 4 - - 0.0
30/05:40pm 18.5 18.9 15.4 82 1.8 ENE 7 9 4 5 - - 0.0
30/05:30pm 18.7 18.3 15.3 80 2.0 NE 11 15 6 8 - - 0.0
30/05:20pm 19.0 19.0 15.2 78 2.2 NE 9 13 5 7 - - 0.0
30/05:10pm 19.3 19.6 15.1 76 2.5 ENE 7 13 4 7 - - 0.0
30/05:00pm 19.7 19.3 15.2 75 2.7 ENE 11 17 6 9 - - 0.0
30/04:50pm 20.2 19.4 15.2 73 3.0 ENE 13 17 7 9 - - 0.0
30/04:40pm 20.6 20.2 15.1 70 3.3 ENE 11 17 6 9 - - 0.0
30/04:30pm 20.7 19.8 14.8 69 3.5 E 13 19 7 10 - - 0.0
30/04:20pm 20.8 19.2 14.9 69 3.5 E 17 20 9 11 - - 0.0
30/04:10pm 21.0 19.4 15.0 68 3.6 ESE 17 22 9 12 - - 0.0
30/04:00pm 21.2 19.6 15.0 67 3.7 E 17 22 9 12 - - 0.0
30/03:50pm 21.3 19.0 14.7 66 3.9 ENE 20 22 11 12 - - 0.0
30/03:40pm 22.1 20.5 14.9 63 4.3 ENE 17 19 9 10 - - 0.0
30/03:30pm 22.1 20.0 14.6 62 4.4 NE 19 24 10 13 - - 0.0
30/03:20pm 21.9 20.9 14.5 63 4.4 ENE 13 19 7 10 - - 0.0
30/03:10pm 21.5 20.5 14.6 65 4.1 E 13 24 7 13 - - 0.0
30/03:00pm 21.5 20.0 14.3 63 4.2 ESE 15 19 8 10 - - 0.0
30/02:50pm 22.0 20.3 14.8 63 4.3 ESE 17 19 9 10 - - 0.0
30/02:40pm 22.2 20.3 14.2 60 4.7 ESE 17 22 9 12 - - 0.0
30/02:30pm 21.9 20.7 14.1 61 4.6 E 13 20 7 11 - - 0.0
30/02:20pm 21.8 20.4 14.5 63 4.3 E 15 19 8 10 - - 0.0
30/02:10pm 22.3 20.6 14.6 61 4.6 SE 17 22 9 12 - - 0.0
30/02:00pm 22.8 20.6 14.5 59 4.9 ESE 19 24 10 13 - - 0.0
30/01:50pm 23.5 21.9 14.9 58 5.1 E 17 20 9 11 - - 0.0
30/01:40pm 22.9 20.5 13.9 57 5.3 ENE 19 24 10 13 - - 0.0
30/01:30pm 21.8 20.7 14.3 62 4.4 ESE 13 17 7 9 - - 0.0
30/01:20pm 21.8 20.4 14.4 63 4.4 ESE 15 19 8 10 - - 0.0
30/01:10pm 22.1 20.7 14.5 62 4.5 ESE 15 20 8 11 - - 0.0
30/01:00pm 21.6 20.2 14.5 64 4.2 ENE 15 17 8 9 - - 0.0
30/12:50pm 21.2 19.4 14.5 65 3.9 E 17 22 9 12 - - 0.0
30/12:40pm 21.4 20.3 14.4 64 4.1 ESE 13 19 7 10 - - 0.0
30/12:30pm 21.2 19.5 14.6 66 3.9 ESE 17 22 9 12 - - 0.0
30/12:20pm 22.1 20.4 14.7 63 4.4 E 17 26 9 14 - - 0.0
30/12:10pm 22.5 20.8 14.7 61 4.6 E 17 24 9 13 - - 0.0
30/12:00pm 22.1 20.2 14.3 61 4.6 ESE 17 24 9 13 - - 0.0
30/11:50am 21.3 18.6 14.5 65 4.0 E 22 28 12 15 - - 0.0
30/11:40am 21.5 19.3 14.5 64 4.1 ESE 19 24 10 13 - - 0.0
30/11:30am 21.5 19.4 14.6 65 4.1 ESE 19 24 10 13 - - 0.0
30/11:20am 21.3 18.9 14.4 64 4.0 ESE 20 28 11 15 - - 0.0
30/11:10am 21.3 19.8 14.2 64 4.2 E 15 20 8 11 - - 0.0
30/11:00am 20.8 18.7 13.7 64 4.1 SE 17 20 9 11 - - 0.0
30/10:50am 20.4 17.9 14.0 66 3.7 SE 20 28 11 15 - - 0.0
30/10:40am 20.5 18.9 13.8 65 3.9 SE 15 22 8 12 - - 0.0
30/10:30am 19.9 18.5 13.5 66 3.7 SE 13 17 7 9 - - 0.0
30/10:20am 19.1 17.2 13.1 68 3.4 SE 15 20 8 11 - - 0.0
30/10:10am 18.9 17.1 13.4 70 3.1 SE 15 20 8 11 - - 0.0
30/10:00am 18.8 16.2 13.2 70 3.2 ESE 19 22 10 12 - - 0.0
30/09:50am 18.4 15.6 12.6 69 3.3 SSE 19 26 10 14 - - 0.0
30/09:40am 17.9 15.1 12.6 71 3.0 SE 19 22 10 12 - - 0.0
30/09:30am 17.3 14.4 12.2 72 2.8 SSE 19 22 10 12 - - 0.0
30/09:20am 16.8 13.6 11.9 73 2.7 SE 20 26 11 14 - - 0.0
30/09:10am 17.2 14.2 12.0 71 2.9 SSE 19 20 10 11 - - 0.0
30/09:00am 16.8 14.1 11.6 71 2.8 SSE 17 22 9 12 - - 0.0
30/08:50am 16.0 13.3 11.8 76 2.3 SE 17 22 9 12 - - 0.0
30/08:40am 15.9 14.5 12.1 78 2.1 SSE 11 13 6 7 - - 0.0
30/08:30am 15.5 14.6 11.5 77 2.2 S 7 11 4 6 - - 0.0
30/08:20am 14.8 13.9 11.4 80 1.8 S 7 9 4 5 - - 0.0
30/08:10am 14.7 13.4 11.1 79 1.9 S 9 11 5 6 - - 0.0
30/08:00am 14.6 13.5 10.8 78 2.0 SSE 7 11 4 6 - - 0.0
30/07:50am 13.9 12.4 10.4 79 1.8 S 9 11 5 6 - - 0.0
30/07:40am 13.9 13.0 10.5 80 1.8 SSE 6 9 3 5 - - 0.0
30/07:30am 13.7 13.1 10.4 80 1.7 S 4 6 2 3 - - 0.0
30/07:20am 13.6 12.6 10.4 81 1.7 SW 6 9 3 5 - - 0.0
30/07:10am 13.7 12.7 10.4 80 1.7 SSW 6 9 3 5 - - 0.0
30/07:00am 13.6 12.6 10.3 80 1.7 SW 6 7 3 4 - - 0.0
30/06:50am 13.5 12.9 10.3 81 1.7 WSW 4 6 2 3 - - 0.0
30/06:40am 13.5 12.4 10.1 80 1.8 SSW 6 11 3 6 - - 0.0
30/06:30am 13.4 12.3 10.1 80 1.7 SW 6 9 3 5 - - 0.0
30/06:20am 13.2 11.6 10.1 81 1.6 SW 9 11 5 6 - - 0.0
30/06:10am 13.0 11.8 10.4 84 1.4 SW 7 11 4 6 - - 0.0
30/06:00am 13.0 11.9 10.6 85 1.3 SW 7 9 4 5 - - 0.0
30/05:50am 12.9 11.5 10.9 88 1.1 SSW 9 13 5 7 - - 0.0
30/05:40am 12.8 11.4 10.9 88 1.0 SSW 9 11 5 6 - - 0.0
30/05:30am 12.7 11.9 11.1 90 0.8 SW 6 7 3 4 - - 0.0
30/05:20am 12.8 11.8 11.1 89 0.9 SSW 7 9 4 5 - - 0.0
30/05:10am 12.9 11.6 11.2 89 0.9 SSE 9 11 5 6 - - 0.0
30/05:00am 12.9 11.2 11.3 90 0.8 SSE 11 13 6 7 - - 0.0
30/04:50am 12.8 11.1 11.3 91 0.8 SSE 11 13 6 7 - - 0.0
30/04:40am 12.7 11.4 11.3 91 0.7 SSE 9 13 5 7 - - 0.0
30/04:30am 12.8 11.5 11.4 91 0.7 SSE 9 13 5 7 - - 0.0
30/04:20am 12.6 11.7 11.4 92 0.6 SSE 7 9 4 5 - - 0.0
30/04:10am 12.6 11.7 11.4 92 0.6 S 7 9 4 5 - - 0.0
30/04:00am 12.7 11.8 11.5 92 0.6 S 7 11 4 6 - - 0.0
30/03:50am 12.8 12.0 11.6 92 0.6 S 7 11 4 6 - - 0.0
30/03:40am 12.9 12.7 11.7 92 0.6 S 4 7 2 4 - - 0.0
30/03:30am 12.9 12.7 11.7 92 0.6 S 4 7 2 4 - - 0.0
30/03:20am 12.9 12.7 11.7 92 0.6 SW 4 7 2 4 - - 0.0
30/03:10am 13.0 12.4 11.7 92 0.7 SW 6 9 3 5 - - 0.0
30/03:00am 13.1 12.3 11.7 91 0.7 SSW 7 11 4 6 - - 0.0
30/02:50am 13.2 12.6 11.8 91 0.8 SSW 6 7 3 4 - - 0.0
30/02:40am 13.3 12.5 11.8 91 0.8 SSW 7 11 4 6 - - 0.0
30/02:30am 13.3 12.5 11.7 90 0.9 SSW 7 9 4 5 - - 0.0
30/02:20am 13.3 13.1 11.7 90 0.9 SW 4 7 2 4 - - 0.0
30/02:10am 13.4 12.6 11.6 89 1.0 S 7 9 4 5 - - 0.0
30/02:00am 13.4 13.1 11.5 88 1.0 SSW 4 9 2 5 - - 0.0
30/01:50am 13.5 12.8 11.4 87 1.1 S 6 7 3 4 - - 0.0
30/01:40am 13.5 12.8 11.4 87 1.1 S 6 7 3 4 - - 0.0
30/01:30am 13.7 12.8 11.4 86 1.2 SSW 7 11 4 6 - - 0.0
30/01:20am 13.7 12.8 11.4 86 1.2 SSE 7 7 4 4 - - 0.0
30/01:10am 13.7 13.4 11.3 85 1.3 S 4 9 2 5 - - 0.0
30/01:00am 13.6 13.3 11.4 86 1.2 SW 4 7 2 4 - - 0.0
30/12:50am 13.5 13.2 11.3 86 1.2 SW 4 6 2 3 - - 0.0
30/12:40am 13.6 12.8 11.2 85 1.3 S 6 6 3 3 - - 0.0
30/12:30am 13.7 12.9 11.2 85 1.3 S 6 7 3 4 - - 0.0
30/12:20am 13.8 13.0 11.2 84 1.4 S 6 7 3 4 - - 0.0
30/12:10am 13.7 13.0 11.3 85 1.3 S 6 7 3 4 - - 0.0
30/12:00am 13.7 13.4 11.3 85 1.3 SSE 4 7 2 4 - - 0.0
 
Date/Time
EST
Temp
°C
App
Temp
°C
Dew
Point
°C
Rel
Hum
%
Delta-T
°C
Wind Press
QNH
hPa
Press
MSL
hPa
Rain since
9am
mm
Dir  Spd
km/h
Gust
km/h
Spd
kts
Gust
kts
29/11:50pm 13.8 12.9 11.3 85 1.3 S 7 7 4 4 - - 0.0
29/11:40pm 14.0 13.2 11.2 83 1.5 S 6 7 3 4 - - 0.0
29/11:30pm 14.1 13.3 11.2 83 1.5 S 6 7 3 4 - - 0.0
29/11:20pm 14.2 13.8 11.2 82 1.6 SSE 4 7 2 4 - - 0.0
29/11:10pm 14.2 13.4 11.0 81 1.7 SSE 6 7 3 4 - - 0.0
29/11:00pm 14.3 13.2 10.7 79 1.9 SE 7 9 4 5 - - 0.0
29/10:50pm 14.4 12.9 10.5 77 2.1 S 9 15 5 8 - - 0.0
29/10:40pm 14.7 14.4 10.2 74 2.4 SSE 2 7 1 4 - - 0.0
29/10:30pm 14.7 14.5 10.4 75 2.3 SW 2 6 1 3 - - 0.0
29/10:20pm 14.7 14.0 10.2 74 2.4 SSE 4 7 2 4 - - 0.0
29/10:10pm 14.4 14.2 10.3 76 2.1 S 2 4 1 2 - - 0.0
29/10:00pm 14.6 14.0 10.5 76 2.2 SSE 4 7 2 4 - - 0.0
29/09:50pm 15.0 14.7 10.1 72 2.6 S 2 6 1 3 - - 0.0
29/09:40pm 14.4 14.1 10.0 75 2.3 SSE 2 6 1 3 - - 0.0
29/09:30pm 13.5 13.3 10.3 81 1.7 W 2 6 1 3 - - 0.0
29/09:20pm 13.9 13.7 10.4 79 1.8 SW 2 6 1 3 - - 0.0
29/09:10pm 13.7 13.9 10.5 81 1.7 CALM 0 0 0 0 - - 0.0
29/09:00pm 13.8 13.9 10.3 79 1.8 CALM 0 0 0 0 - - 0.0
29/08:50pm 13.9 14.0 10.2 78 1.9 CALM 0 2 0 1 - - 0.0
29/08:40pm 13.8 13.9 10.1 78 1.9 CALM 0 2 0 1 - - 0.0
29/08:30pm 13.6 13.3 10.2 80 1.8 W 2 4 1 2 - - 0.0
29/08:20pm 13.6 12.9 10.1 79 1.8 SSW 4 7 2 4 - - 0.0
29/08:10pm 13.6 12.9 10.2 80 1.8 S 4 7 2 4 - - 0.0
29/08:00pm 13.8 13.9 10.2 79 1.9 CALM 0 0 0 0 - - 0.0
29/07:50pm 13.7 13.9 10.4 80 1.7 CALM 0 0 0 0 - - 0.0
29/07:40pm 14.0 14.1 10.2 78 2.0 CALM 0 0 0 0 - - 0.0
29/07:30pm 14.0 13.8 10.4 79 1.9 WSW 2 6 1 3 - - 0.0
29/07:20pm 14.2 14.0 10.4 78 2.0 NNW 2 4 1 2 - - 0.0
29/07:10pm 14.3 13.7 10.3 77 2.1 N 4 4 2 2 - - 0.0
29/07:00pm 14.3 13.7 10.3 77 2.1 NNW 4 6 2 3 - - 0.0
29/06:50pm 14.6 14.0 10.3 75 2.3 NW 4 6 2 3 - - 0.0
29/06:40pm 14.9 14.3 10.4 74 2.4 NW 4 4 2 2 - - 0.0
29/06:30pm 15.0 13.9 10.1 72 2.6 WNW 6 6 3 3 - - 0.0
29/06:20pm 14.9 13.9 10.3 74 2.4 NW 6 6 3 3 - - 0.0
29/06:10pm 15.4 14.4 10.2 71 2.7 WNW 6 7 3 4 - - 0.0
29/06:00pm 15.5 15.7 10.4 71 2.7 CALM 0 4 0 2 - - 0.0
29/05:50pm 15.8 16.0 10.5 71 2.8 CALM 0 0 0 0 - - 0.0
29/05:40pm 16.1 16.2 10.3 68 3.1 CALM 0 0 0 0 - - 0.0
29/05:30pm 16.4 16.5 10.3 67 3.2 CALM 0 0 0 0 - - 0.0
29/05:20pm 16.8 16.6 10.4 66 3.4 ENE 2 6 1 3 - - 0.0
29/05:10pm 17.2 16.5 10.0 62 3.8 E 4 9 2 5 - - 0.0
29/05:00pm 17.7 16.4 10.0 60 4.1 E 7 11 4 6 - - 0.0
29/04:50pm 18.4 16.3 9.8 57 4.6 E 11 15 6 8 - - 0.0
29/04:40pm 18.7 15.8 9.6 55 4.8 E 15 20 8 11 - - 0.0
29/04:30pm 19.3 17.1 9.5 53 5.2 E 11 17 6 9 - - 0.0
29/04:20pm 19.7 18.0 9.7 52 5.3 E 9 13 5 7 - - 0.0
29/04:10pm 19.6 16.5 8.9 50 5.6 ESE 15 22 8 12 - - 0.0
29/04:00pm 20.1 18.0 9.6 51 5.6 E 11 17 6 9 - - 0.0
29/03:50pm 19.9 17.2 8.8 48 5.8 E 13 20 7 11 - - 0.0
29/03:40pm 19.8 15.9 8.7 48 5.8 E 19 20 10 11 - - 0.0
29/03:30pm 20.1 17.0 8.8 48 6.0 ESE 15 20 8 11 - - 0.0
29/03:20pm 20.0 16.2 8.9 48 5.9 ESE 19 22 10 12 - - 0.0
29/03:10pm 19.8 15.8 8.4 47 6.0 E 19 22 10 12 - - 0.0
29/03:00pm 19.9 15.9 8.4 47 6.0 ESE 19 22 10 12 - - 0.0
29/02:50pm 19.9 15.8 8.5 47 6.0 SE 20 28 11 15 - - 0.0
29/02:40pm 20.0 15.9 7.8 45 6.3 SE 19 26 10 14 - - 0.0
29/02:30pm 20.0 15.8 7.6 44 6.4 ESE 19 24 10 13 - - 0.0
29/02:20pm 19.9 15.1 7.5 44 6.4 SE 22 28 12 15 - - 0.0
29/02:10pm 20.1 16.3 7.7 44 6.4 SSE 17 22 9 12 - - 0.0
29/02:00pm 19.7 15.0 7.7 45 6.2 SSE 22 24 12 13 - - 0.0
29/01:50pm 19.8 15.3 7.1 43 6.5 SSE 20 26 11 14 - - 0.0
29/01:40pm 19.6 14.6 6.6 42 6.6 SSE 22 30 12 16 - - 0.0
29/01:30pm 19.5 14.5 6.4 42 6.6 SSE 22 28 12 15 - - 0.0
29/01:20pm 19.6 14.6 6.5 42 6.6 SSE 22 30 12 16 - - 0.0
29/01:10pm 19.3 14.0 6.6 43 6.4 S 24 28 13 15 - - 0.0
29/01:00pm 19.6 14.5 5.8 40 6.8 SSE 22 28 12 15 - - 0.0
29/12:50pm 20.0 15.5 5.9 39 7.0 SE 19 24 10 13 - - 0.0
29/12:40pm 19.5 13.9 5.4 39 6.9 ESE 24 30 13 16 - - 0.0
29/12:30pm 19.6 14.9 5.3 39 7.0 ESE 19 24 10 13 - - 0.0
29/12:20pm 19.9 16.1 5.6 39 7.1 SSE 15 20 8 11 - - 0.0
29/12:10pm 19.6 15.7 5.5 39 7.0 SE 15 19 8 10 - - 0.0
29/12:00pm 19.2 15.0 5.8 41 6.6 ESE 17 24 9 13 - - 0.0
29/11:50am 18.7 14.1 5.7 42 6.4 SE 19 32 10 17 - - 0.0
29/11:40am 18.7 14.5 5.8 42 6.4 SE 17 20 9 11 - - 0.0
29/11:30am 18.1 13.8 5.1 42 6.3 SE 17 20 9 11 - - 0.0
29/11:20am 17.7 13.0 5.3 44 6.0 SSE 19 26 10 14 - - 0.0
29/11:10am 17.4 13.1 5.1 44 5.9 SSE 17 24 9 13 - - 0.0
29/11:00am 17.3 13.9 5.7 46 5.7 SSE 13 20 7 11 - - 0.0
29/10:50am 17.0 15.0 7.1 52 5.0 WNW 7 9 4 5 - - 0.0
29/10:40am 16.1 13.7 7.1 55 4.5 W 9 13 5 7 - - 0.0
29/10:30am 15.7 13.3 7.0 56 4.3 SW 9 11 5 6 - - 0.0
29/10:20am 15.2 12.8 6.9 57 4.1 WSW 9 17 5 9 - - 0.0
29/10:10am 14.8 12.3 6.5 57 4.0 WSW 9 11 5 6 - - 0.0
29/10:00am 14.5 12.1 6.9 60 3.7 WSW 9 13 5 7 - - 0.0
29/09:50am 14.1 11.9 6.1 58 3.8 SW 7 11 4 6 - - 0.0
29/09:40am 13.6 11.0 6.2 61 3.5 SW 9 15 5 8 - - 0.0
29/09:30am 13.3 10.6 5.7 60 3.6 SW 9 11 5 6 - - 0.0
29/09:20am 12.7 10.2 6.4 65 3.0 SW 9 15 5 8 - - 0.0
29/09:10am 12.1 9.1 6.0 66 2.9 W 11 15 6 8 - - 0.0
29/09:00am 11.8 9.2 5.9 67 2.8 WSW 9 13 5 7 - - 0.0
29/08:50am 11.5 8.7 5.3 65 2.9 WSW 9 13 5 7 - - 0.0
29/08:40am 11.4 9.0 5.4 66 2.8 SSW 7 15 4 8 - - 0.0
29/08:30am 11.1 8.9 5.4 68 2.6 E 6 7 3 4 - - 0.0
29/08:20am 10.5 8.6 6.5 76 1.9 E 6 7 3 4 - - 0.0
29/08:10am 9.8 8.1 6.0 77 1.8 SE 4 6 2 3 - - 0.0
29/08:00am 9.4 7.3 6.0 79 1.6 ENE 6 7 3 4 - - 0.0
29/07:50am 8.7 6.4 5.0 77 1.7 ENE 6 7 3 4 - - 0.0
29/07:40am 8.4 6.0 5.3 81 1.4 S 7 9 4 5 - - 0.0
29/07:30am 7.9 6.0 4.7 80 1.4 ENE 4 9 2 5 - - 0.0
29/07:20am 7.0 4.9 4.0 81 1.3 E 4 7 2 4 - - 0.0
29/07:10am 6.5 4.4 3.7 82 1.2 SSE 4 7 2 4 - - 0.0
29/07:00am 5.8 3.3 3.6 86 0.9 WNW 6 11 3 6 - - 0.0
29/06:50am 6.9 4.1 3.3 78 1.5 SW 7 15 4 8 - - 0.0
29/06:40am 6.1 3.9 3.3 82 1.2 SSW 4 9 2 5 - - 0.0
29/06:30am 5.2 2.5 3.7 90 0.6 N 7 9 4 5 - - 0.0
29/06:20am 6.3 4.2 4.1 86 0.9 NW 4 6 2 3 - - 0.0
29/06:10am 6.8 4.3 3.7 80 1.3 SW 6 7 3 4 - - 0.0
29/06:00am 6.9 5.1 3.3 78 1.5 SW 2 6 1 3 - - 0.0
29/05:50am 6.8 5.1 4.0 82 1.2 N 2 4 1 2 - - 0.0
29/05:40am 7.1 4.6 3.9 80 1.4 WNW 6 7 3 4 - - 0.0
29/05:30am 7.5 4.8 3.6 76 1.7 SW 7 9 4 5 - - 0.0
29/05:20am 7.7 5.0 3.7 76 1.7 SW 7 11 4 6 - - 0.0
29/05:10am 7.7 5.0 3.9 77 1.6 WSW 7 9 4 5 - - 0.0
29/05:00am 8.0 5.2 3.4 73 2.0 WSW 7 11 4 6 - - 0.0
29/04:50am 7.5 5.0 3.5 76 1.7 WSW 6 11 3 6 - - 0.0
29/04:40am 7.1 4.5 3.4 77 1.6 WSW 6 9 3 5 - - 0.0
29/04:30am 7.1 4.6 3.6 78 1.5 SW 6 6 3 3 - - 0.0
29/04:20am 6.8 4.6 3.6 80 1.4 SW 4 6 2 3 - - 0.0
29/04:10am 6.4 4.6 3.7 83 1.1 SW 2 7 1 4 - - 0.0
29/04:00am 6.1 3.6 3.8 85 1.0 WSW 6 9 3 5 - - 0.0
29/03:50am 6.1 4.4 4.1 87 0.9 NNW 2 6 1 3 - - 0.0
29/03:40am 6.6 4.6 4.3 85 1.0 WNW 4 6 2 3 - - 0.0
29/03:30am 6.6 4.8 3.7 82 1.2 SW 2 6 1 3 - - 0.0
29/03:20am 6.0 3.9 3.9 86 0.9 N 4 6 2 3 - - 0.0
29/03:10am 6.0 4.0 4.2 88 0.8 NNW 4 6 2 3 - - 0.0
29/03:00am 6.9 4.9 4.3 83 1.1 WNW 4 7 2 4 - - 0.0
29/02:50am 7.3 5.6 3.9 79 1.5 SW 2 7 1 4 - - 0.0
29/02:40am 7.8 5.3 3.9 76 1.7 SW 6 7 3 4 - - 0.0
29/02:30am 7.2 5.5 3.9 79 1.4 NW 2 4 1 2 - - 0.0
29/02:20am 7.3 5.5 3.6 77 1.6 WSW 2 6 1 3 - - 0.0
29/02:10am 7.4 5.4 4.4 81 1.3 NNW 4 6 2 3 - - 0.0
29/02:00am 7.8 5.6 3.4 74 1.9 NW 4 6 2 3 - - 0.0
29/01:50am 7.8 6.1 4.1 77 1.6 NNE 2 7 1 4 - - 0.0
29/01:40am 8.0 6.0 4.2 77 1.7 NW 4 7 2 4 - - 0.0
29/01:30am 8.5 5.9 3.0 68 2.3 W 6 9 3 5 - - 0.0
29/01:20am 8.4 6.2 3.4 71 2.2 WSW 4 7 2 4 - - 0.0
29/01:10am 8.0 5.7 2.9 70 2.2 WSW 4 7 2 4 - - 0.0
29/01:00am 8.0 6.1 4.9 81 1.4 N 4 6 2 3 - - 0.0
29/12:50am 9.6 7.0 4.1 68 2.4 SW 7 9 4 5 - - 0.0
29/12:40am 10.5 8.0 3.5 62 3.1 SSW 6 9 3 5 - - 0.0
29/12:30am 10.7 7.7 2.0 55 3.7 W 7 9 4 5 - - 0.0
29/12:20am 9.5 7.2 2.6 62 2.9 W 4 7 2 4 - - 0.0
29/12:10am 9.2 6.5 2.7 64 2.8 WNW 6 7 3 4 - - 0.0
29/12:00am 9.1 6.9 3.4 67 2.5 N 4 6 2 3 - - 0.0
 
Date/Time
EST
Temp
°C
App
Temp
°C
Dew
Point
°C
Rel
Hum
%
Delta-T
°C
Wind Press
QNH
hPa
Press
MSL
hPa
Rain since
9am
mm
Dir  Spd
km/h
Gust
km/h
Spd
kts
Gust
kts
28/11:50pm 9.7 7.3 4.5 70 2.3 NNW 6 7 3 4 - - 0.0
28/11:40pm 10.6 8.0 3.4 61 3.2 WNW 6 7 3 4 - - 0.0
28/11:30pm 10.6 8.8 3.2 60 3.2 NW 2 7 1 4 - - 0.0
28/11:20pm 10.8 8.9 3.0 58 3.4 SW 2 4 1 2 - - 0.0
28/11:10pm 10.7 8.5 3.2 60 3.3 W 4 6 2 3 - - 0.0
28/11:00pm 10.6 8.8 3.5 61 3.1 W 2 6 1 3 - - 0.0
28/10:50pm 10.7 8.9 3.7 62 3.1 SW 2 6 1 3 - - 0.0
28/10:40pm 10.6 8.9 4.0 63 2.9 SSW 2 4 1 2 - - 0.0
28/10:30pm 11.1 8.4 3.6 60 3.3 W 7 9 4 5 - - 0.0
28/10:20pm 11.4 8.8 4.3 61 3.2 W 7 9 4 5 - - 0.0
28/10:10pm 11.2 8.0 2.8 56 3.7 WSW 9 11 5 6 - - 0.0
28/10:00pm 10.9 8.5 4.3 64 3.0 SW 6 7 3 4 - - 0.0
28/09:50pm 11.1 8.4 3.6 60 3.3 WSW 7 11 4 6 - - 0.0
28/09:40pm 10.8 8.7 3.7 61 3.1 SSW 4 6 2 3 - - 0.0
28/09:30pm 10.7 8.9 3.5 61 3.2 SSE 2 6 1 3 - - 0.0
28/09:20pm 10.3 8.2 3.7 63 2.9 WSW 4 7 2 4 - - 0.0
28/09:10pm 9.8 8.6 4.5 69 2.4 CALM 0 4 0 2 - - 0.0
28/09:00pm 10.6 7.9 5.6 71 2.3 SSE 9 11 5 6 - - 0.0
28/08:50pm 10.9 8.2 3.6 60 3.2 WSW 7 11 4 6 - - 0.0
28/08:40pm 11.4 9.0 4.5 62 3.1 SSW 6 7 3 4 - - 0.0
28/08:30pm 11.8 9.4 4.3 60 3.4 SSW 6 9 3 5 - - 0.0
28/08:20pm 12.1 9.5 4.0 57 3.7 WSW 7 9 4 5 - - 0.0
28/08:10pm 12.2 9.5 3.8 56 3.8 W 7 9 4 5 - - 0.0
28/08:00pm 12.4 9.3 3.8 55 3.9 W 9 11 5 6 - - 0.0
28/07:50pm 12.6 9.5 3.8 55 4.0 SW 9 13 5 7 - - 0.0
28/07:40pm 12.1 8.9 3.3 55 3.9 WSW 9 11 5 6 - - 0.0
28/07:30pm 11.6 9.1 5.0 64 3.0 W 7 9 4 5 - - 0.0
28/07:20pm 12.3 9.3 3.9 56 3.8 SW 9 11 5 6 - - 0.0
28/07:10pm 11.7 9.3 4.4 61 3.3 WSW 6 9 3 5 - - 0.0
28/07:00pm 12.5 9.9 4.4 58 3.7 SW 7 9 4 5 - - 0.0
28/06:50pm 12.6 10.5 4.1 56 3.9 SW 4 7 2 4 - - 0.0
28/06:40pm 12.8 10.8 4.3 56 3.9 WSW 4 7 2 4 - - 0.0
28/06:30pm 13.2 11.5 4.1 54 4.2 W 2 4 1 2 - - 0.0
28/06:20pm 13.8 11.2 4.2 52 4.4 SW 7 11 4 6 - - 0.0
28/06:10pm 13.9 11.4 3.7 50 4.6 WNW 6 7 3 4 - - 0.0
28/06:00pm 14.2 12.0 3.6 49 4.8 W 4 6 2 3 - - 0.0
28/05:50pm 14.3 11.7 4.1 50 4.7 WSW 7 9 4 5 - - 0.0
28/05:40pm 14.3 11.7 4.0 50 4.7 SW 7 11 4 6 - - 0.0
28/05:30pm 14.5 12.1 5.3 54 4.4 WSW 7 7 4 4 - - 0.0
28/05:20pm 14.8 12.3 4.5 50 4.8 WSW 7 7 4 4 - - 0.0
28/05:10pm 15.2 12.9 5.0 50 4.8 WSW 6 7 3 4 - - 0.0
28/05:00pm 16.2 13.8 5.2 48 5.3 WSW 7 11 4 6 - - 0.0
28/04:50pm 16.9 13.5 4.0 42 6.1 SSW 11 19 6 10 - - 0.0
28/04:40pm 17.3 13.6 4.4 42 6.1 SSW 13 24 7 13 - - 0.0
28/04:30pm 17.5 12.8 2.9 37 6.7 S 17 26 9 14 - - 0.0
28/04:20pm 17.7 13.3 2.7 36 6.9 SSW 15 28 8 15 - - 0.0
28/04:10pm 17.9 13.7 3.7 39 6.7 SW 15 20 8 11 - - 0.0
28/04:00pm 18.1 13.4 3.4 37 6.9 SSW 17 22 9 12 - - 0.0
28/03:50pm 18.1 13.8 3.4 37 6.9 SSW 15 22 8 12 - - 0.0
28/03:40pm 18.1 13.1 3.5 38 6.8 S 19 26 10 14 - - 0.0
28/03:30pm 18.1 13.1 3.7 38 6.8 S 19 28 10 15 - - 0.0
28/03:20pm 18.2 13.8 4.6 40 6.5 SW 17 20 9 11 - - 0.0
28/03:10pm 18.1 13.9 3.8 38 6.7 SSW 15 22 8 12 - - 0.0
28/03:00pm 18.0 13.0 3.7 38 6.7 SSW 19 26 10 14 - - 0.0
28/02:50pm 18.0 13.9 4.5 41 6.5 SSW 15 26 8 14 - - 0.0
28/02:40pm 17.9 13.5 4.8 42 6.3 SW 17 19 9 10 - - 0.0
28/02:30pm 17.8 13.7 4.1 40 6.5 SW 15 20 8 11 - - 0.0
28/02:20pm 17.6 13.0 3.7 39 6.5 SSW 17 24 9 13 - - 0.0
28/02:10pm 17.3 12.2 4.0 41 6.3 SSW 20 24 11 13 - - 0.0
28/02:00pm 17.1 12.3 4.7 44 5.9 S 19 22 10 12 - - 0.0
28/01:50pm 17.0 12.5 4.4 43 6.0 SW 17 20 9 11 - - 0.0
28/01:40pm 16.8 12.3 4.2 43 5.9 SSW 17 26 9 14 - - 0.0
28/01:30pm 16.7 12.2 4.3 43 5.8 SW 17 22 9 12 - - 0.0
28/01:20pm 16.6 13.1 5.5 48 5.4 SSW 13 17 7 9 - - 0.0
28/01:10pm 16.0 11.6 4.8 47 5.3 SSW 17 24 9 13 - - 0.0
28/01:00pm 16.1 11.6 4.1 45 5.6 SSW 17 22 9 12 - - 0.0
28/12:50pm 16.2 11.1 4.0 44 5.7 SSW 20 28 11 15 - - 0.0
28/12:40pm 15.7 10.6 4.3 46 5.3 S 20 28 11 15 - - 0.0

Other Formats:

Comma delimited format used in spreadsheet applications
http://www.bom.gov.au/fwo/IDQ60801/IDQ60801.99083.axf

JavaScript Object Notation format (JSON) in row-major order
http://www.bom.gov.au/fwo/IDQ60801/IDQ60801.99083.json